Darstellungsparameter: Aktuell verwendete Einstellungen:
Skalierung der Graphiken ... ?
xyx+y,   Skalierungsfaktor:      Skalierung: Modus: x, Faktor: 1
Darstellungszeitraum ... ?
Vom - - bis: - -   Zeitraum: 18.08.2020 - 18.08.2020
Min/Max/Avg-Anzeige ... ?
Zeige MMA aktuell
Zeige MMA Monat
Zeige MMA alles
Zeige --A aktuell
Zeige --A Monat
Zeige --A alles
Keine MMA-Anzeige
MMA:
Average (ber die Originaldaten)
MMA-Basis: 23.02.2003 - 19.08.2019
Quicknavigation für Darstellung... ?
Tage:      1T, 2T, 3T, 5T -1T -2T -3T -5T +1T +2T +3T +5T
Wochen: 1W, 2W, 3W -1W -2W -3W +1W +2W +3W
Monate: 1M, 3M, 6M -1M -3M -6M +1M +3M +6M
Jahre:    1J, 3J, 5J, 10J -1J -3J -5J -10J +1J +3J +5J +10J
Nutze für die Darstellung ... ?
Originaldaten oder Mittelwerte auf ...
Stundenbasis Tagesbasis Wochenbasis
Monatsbasis Jahresbasis      Datenbasis: Original-Daten
Darstellen als:
Statistik (Auto) Statistik J:M      Darstellung:
Zur Graphik,    zurück zur Übersicht aller Sensoren.
 
Tabellarische Datenbersicht: ?
 
Sensor: Nr:Datum:Temp:Feuchte:Taupunkt:
Aussen-T/F 1 18-08-2020 00:00:00 19.3 C 83 % 16.34 C
2 18-08-2020 00:05:00 19.3 C 83 % 16.34 C
3 18-08-2020 00:10:00 19.2 C 82 % 16.05 C
4 18-08-2020 00:15:00 19.2 C 82 % 16.05 C
5 18-08-2020 00:20:00 19.1 C 82 % 15.96 C
6 18-08-2020 00:25:00 19 C 83 % 16.05 C
7 18-08-2020 00:30:00 18.9 C 83 % 15.95 C
8 18-08-2020 00:35:00 18.8 C 83 % 15.85 C
9 18-08-2020 00:40:00 18.8 C 83 % 15.85 C
10 18-08-2020 00:45:00 18.7 C 83 % 15.75 C
11 18-08-2020 00:50:00 18.6 C 84 % 15.84 C
12 18-08-2020 00:55:00 18.6 C 84 % 15.84 C
13 18-08-2020 01:00:00 18.6 C 85 % 16.03 C
14 18-08-2020 01:05:00 18.6 C 85 % 16.03 C
15 18-08-2020 01:10:00 18.6 C 85 % 16.03 C
16 18-08-2020 01:15:00 18.5 C 85 % 15.93 C
17 18-08-2020 01:20:00 18.4 C 85 % 15.83 C
18 18-08-2020 01:25:00 18.4 C 85 % 15.83 C
19 18-08-2020 01:30:00 18.3 C 85 % 15.74 C
20 18-08-2020 01:35:00 18.3 C 86 % 15.92 C
21 18-08-2020 01:40:00 18.3 C 86 % 15.92 C
22 18-08-2020 01:45:00 18.3 C 86 % 15.92 C
23 18-08-2020 01:50:00 18.3 C 87 % 16.1 C
24 18-08-2020 01:55:00 18.3 C 87 % 16.1 C
25 18-08-2020 02:00:00 18.2 C 86 % 15.82 C
Sensor: Nr:Datum:Temp:Feuchte:Taupunkt:
Aussen-T/F 26 18-08-2020 02:05:00 18.2 C 86 % 15.82 C
27 18-08-2020 02:10:00 18.2 C 86 % 15.82 C
28 18-08-2020 02:15:00 18.2 C 86 % 15.82 C
29 18-08-2020 02:20:00 18.2 C 86 % 15.82 C
30 18-08-2020 02:25:00 18.2 C 86 % 15.82 C
31 18-08-2020 02:30:00 18.2 C 86 % 15.82 C
32 18-08-2020 02:35:00 18.2 C 86 % 15.82 C
33 18-08-2020 02:40:00 18.2 C 86 % 15.82 C
34 18-08-2020 02:45:00 18.2 C 86 % 15.82 C
35 18-08-2020 02:50:00 18.2 C 86 % 15.82 C
36 18-08-2020 02:55:00 18.2 C 86 % 15.82 C
37 18-08-2020 03:00:00 18.2 C 85 % 15.64 C
38 18-08-2020 03:05:00 18.1 C 85 % 15.54 C
39 18-08-2020 03:10:00 18 C 85 % 15.44 C
40 18-08-2020 03:15:00 17.9 C 85 % 15.34 C
41 18-08-2020 03:20:00 17.8 C 85 % 15.25 C
42 18-08-2020 03:25:00 17.7 C 85 % 15.15 C
43 18-08-2020 03:30:00 17.6 C 85 % 15.05 C
44 18-08-2020 03:35:00 17.4 C 85 % 14.85 C
45 18-08-2020 03:40:00 17.3 C 85 % 14.76 C
46 18-08-2020 03:45:00 17.2 C 86 % 14.84 C
47 18-08-2020 03:50:00 17.1 C 86 % 14.74 C
48 18-08-2020 03:55:00 17 C 86 % 14.64 C
49 18-08-2020 04:00:00 16.9 C 86 % 14.54 C
50 18-08-2020 04:05:00 16.9 C 87 % 14.72 C
Sensor: Nr:Datum:Temp:Feuchte:Taupunkt:
Aussen-T/F 51 18-08-2020 04:10:00 16.8 C 87 % 14.62 C
52 18-08-2020 04:15:00 16.8 C 88 % 14.8 C
53 18-08-2020 04:20:00 16.8 C 88 % 14.8 C
54 18-08-2020 04:25:00 16.8 C 88 % 14.8 C
55 18-08-2020 04:30:00 16.8 C 88 % 14.8 C
56 18-08-2020 04:35:00 16.7 C 88 % 14.7 C
57 18-08-2020 04:40:00 16.7 C 88 % 14.7 C
58 18-08-2020 04:45:00 16.7 C 88 % 14.7 C
59 18-08-2020 04:50:00 16.7 C 88 % 14.7 C
60 18-08-2020 04:55:00 16.6 C 88 % 14.6 C
61 18-08-2020 05:00:00 16.6 C 89 % 14.78 C
62 18-08-2020 05:05:00 16.5 C 89 % 14.68 C
63 18-08-2020 05:10:00 16.5 C 89 % 14.68 C
64 18-08-2020 05:15:00 16.5 C 89 % 14.68 C
65 18-08-2020 05:20:00 16.6 C 90 % 14.95 C
66 18-08-2020 05:25:00 16.6 C 90 % 14.95 C
67 18-08-2020 05:30:00 16.6 C 90 % 14.95 C
68 18-08-2020 05:35:00 16.6 C 90 % 14.95 C
69 18-08-2020 05:40:00 16.7 C 89 % 14.88 C
70 18-08-2020 05:45:00 16.7 C 89 % 14.88 C
71 18-08-2020 05:50:00 16.6 C 89 % 14.78 C
72 18-08-2020 05:55:00 16.6 C 89 % 14.78 C
73 18-08-2020 06:00:00 16.6 C 89 % 14.78 C
74 18-08-2020 06:05:00 16.5 C 89 % 14.68 C
75 18-08-2020 06:10:00 16.4 C 89 % 14.58 C
Sensor: Nr:Datum:Temp:Feuchte:Taupunkt:
Aussen-T/F 76 18-08-2020 06:15:00 16.3 C 89 % 14.48 C
77 18-08-2020 06:20:00 16.3 C 89 % 14.48 C
78 18-08-2020 06:25:00 16.3 C 89 % 14.48 C
79 18-08-2020 06:30:00 16.3 C 89 % 14.48 C
80 18-08-2020 06:35:00 16.4 C 89 % 14.58 C
81 18-08-2020 06:40:00 16.4 C 89 % 14.58 C
82 18-08-2020 06:45:00 16.5 C 89 % 14.68 C
83 18-08-2020 06:50:00 16.7 C 88 % 14.7 C
84 18-08-2020 06:55:00 16.9 C 87 % 14.72 C
85 18-08-2020 07:00:00 17.1 C 86 % 14.74 C
86 18-08-2020 07:05:00 17.2 C 86 % 14.84 C
87 18-08-2020 07:10:00 17.3 C 85 % 14.76 C
88 18-08-2020 07:15:00 17.4 C 85 % 14.85 C
89 18-08-2020 07:20:00 17.6 C 84 % 14.87 C
90 18-08-2020 07:25:00 17.6 C 85 % 15.05 C
91 18-08-2020 07:30:00 17.7 C 84 % 14.96 C
92 18-08-2020 07:35:00 17.7 C 85 % 15.15 C
93 18-08-2020 07:40:00 17.7 C 85 % 15.15 C
94 18-08-2020 07:45:00 17.7 C 85 % 15.15 C
95 18-08-2020 07:50:00 17.7 C 85 % 15.15 C
96 18-08-2020 07:55:00 17.7 C 85 % 15.15 C
97 18-08-2020 08:00:00 17.7 C 86 % 15.33 C
98 18-08-2020 08:05:00 17.7 C 85 % 15.15 C
99 18-08-2020 08:10:00 17.7 C 86 % 15.33 C
100 18-08-2020 08:15:00 17.7 C 86 % 15.33 C
Sensor: Nr:Datum:Temp:Feuchte:Taupunkt:
Aussen-T/F 101 18-08-2020 08:20:00 17.7 C 86 % 15.33 C
102 18-08-2020 08:25:00 17.7 C 86 % 15.33 C
103 18-08-2020 08:30:00 17.8 C 86 % 15.43 C
104 18-08-2020 08:35:00 17.9 C 85 % 15.34 C
105 18-08-2020 08:40:00 18 C 85 % 15.44 C
106 18-08-2020 08:45:00 18.1 C 84 % 15.35 C
107 18-08-2020 08:50:00 18.1 C 84 % 15.35 C
108 18-08-2020 08:55:00 18.2 C 84 % 15.45 C
109 18-08-2020 09:00:00 18.3 C 84 % 15.55 C
110 18-08-2020 09:05:00 18.4 C 84 % 15.65 C
111 18-08-2020 09:10:00 18.4 C 84 % 15.65 C
112 18-08-2020 09:15:00 18.5 C 84 % 15.75 C
113 18-08-2020 09:20:00 18.6 C 83 % 15.66 C
114 18-08-2020 09:25:00 18.7 C 83 % 15.75 C
115 18-08-2020 09:30:00 18.8 C 83 % 15.85 C
116 18-08-2020 09:35:00 18.9 C 82 % 15.76 C
117 18-08-2020 09:40:00 19 C 82 % 15.86 C
118 18-08-2020 09:45:00 19.1 C 82 % 15.96 C
119 18-08-2020 09:50:00 19.1 C 82 % 15.96 C
120 18-08-2020 09:55:00 19.2 C 81 % 15.86 C
121 18-08-2020 10:00:00 19.3 C 81 % 15.96 C
122 18-08-2020 10:05:00 19.5 C 81 % 16.15 C
123 18-08-2020 10:10:00 19.7 C 81 % 16.35 C
124 18-08-2020 10:15:00 19.8 C 80 % 16.25 C
125 18-08-2020 10:20:00 19.9 C 79 % 16.15 C
Sensor: Nr:Datum:Temp:Feuchte:Taupunkt:
Aussen-T/F 126 18-08-2020 10:25:00 20 C 80 % 16.44 C
127 18-08-2020 10:30:00 20.1 C 79 % 16.34 C
128 18-08-2020 10:35:00 20.2 C 80 % 16.64 C
129 18-08-2020 10:40:00 20.3 C 79 % 16.54 C
130 18-08-2020 10:45:00 20.3 C 78 % 16.34 C
131 18-08-2020 10:50:00 20.4 C 79 % 16.64 C
132 18-08-2020 10:55:00 20.6 C 78 % 16.63 C
133 18-08-2020 11:00:00 20.8 C 77 % 16.62 C
134 18-08-2020 11:05:00 20.9 C 76 % 16.51 C
135 18-08-2020 11:10:00 21.2 C 76 % 16.8 C
136 18-08-2020 11:15:00 21.3 C 74 % 16.48 C
137 18-08-2020 11:20:00 21.4 C 73 % 16.36 C
138 18-08-2020 11:25:00 21.5 C 72 % 16.24 C
139 18-08-2020 11:30:00 21.6 C 71 % 16.12 C
140 18-08-2020 11:35:00 21.7 C 70 % 15.99 C
141 18-08-2020 11:40:00 21.7 C 70 % 15.99 C
142 18-08-2020 11:45:00 21.8 C 68 % 15.63 C
143 18-08-2020 11:50:00 22 C 68 % 15.82 C
144 18-08-2020 11:55:00 22.2 C 69 % 16.24 C
145 18-08-2020 12:00:00 22.3 C 67 % 15.88 C
146 18-08-2020 12:05:00 22.4 C 67 % 15.97 C
147 18-08-2020 12:10:00 22.5 C 67 % 16.07 C
148 18-08-2020 12:15:00 22.6 C 65 % 15.69 C
149 18-08-2020 12:20:00 22.7 C 65 % 15.78 C
150 18-08-2020 12:25:00 22.7 C 66 % 16.02 C
Sensor: Nr:Datum:Temp:Feuchte:Taupunkt:
Aussen-T/F 151 18-08-2020 12:30:00 22.8 C 65 % 15.88 C
152 18-08-2020 12:35:00 22.8 C 64 % 15.64 C
153 18-08-2020 12:40:00 23 C 64 % 15.82 C
154 18-08-2020 12:45:00 23.1 C 63 % 15.67 C
155 18-08-2020 12:50:00 23.2 C 63 % 15.77 C
156 18-08-2020 12:55:00 23.4 C 60 % 15.19 C
157 18-08-2020 13:00:00 23.4 C 62 % 15.71 C
158 18-08-2020 13:05:00 23.4 C 64 % 16.2 C
159 18-08-2020 13:10:00 23.3 C 63 % 15.86 C
160 18-08-2020 13:15:00 23.3 C 62 % 15.61 C
161 18-08-2020 13:20:00 23.4 C 62 % 15.71 C
162 18-08-2020 13:25:00 23.5 C 63 % 16.05 C
163 18-08-2020 13:30:00 23.6 C 61 % 15.64 C
164 18-08-2020 13:35:00 23.6 C 61 % 15.64 C
165 18-08-2020 13:40:00 23.6 C 61 % 15.64 C
166 18-08-2020 13:45:00 23.7 C 62 % 15.99 C
167 18-08-2020 13:50:00 23.8 C 62 % 16.08 C
168 18-08-2020 13:55:00 23.9 C 61 % 15.92 C
169 18-08-2020 14:00:00 24 C 60 % 15.76 C
170 18-08-2020 14:05:00 24.1 C 60 % 15.85 C
171 18-08-2020 14:10:00 24.2 C 60 % 15.95 C
172 18-08-2020 14:15:00 24.3 C 58 % 15.51 C
173 18-08-2020 14:20:00 24.6 C 58 % 15.79 C
174 18-08-2020 14:25:00 24.7 C 58 % 15.88 C
175 18-08-2020 14:30:00 24.8 C 58 % 15.98 C
Sensor: Nr:Datum:Temp:Feuchte:Taupunkt:
Aussen-T/F 176 18-08-2020 14:35:00 24.9 C 56 % 15.52 C
177 18-08-2020 14:40:00 25 C 57 % 15.89 C
178 18-08-2020 14:45:00 25.1 C 55 % 15.43 C
179 18-08-2020 14:50:00 24.9 C 55 % 15.24 C
180 18-08-2020 14:55:00 24.9 C 55 % 15.24 C
181 18-08-2020 15:00:00 24.9 C 55 % 15.24 C
182 18-08-2020 15:05:00 24.8 C 56 % 15.43 C
183 18-08-2020 15:10:00 24.4 C 59 % 15.87 C
184 18-08-2020 15:15:00 24.1 C 57 % 15.05 C
185 18-08-2020 15:20:00 23.6 C 60 % 15.38 C
186 18-08-2020 15:25:00 23.5 C 61 % 15.55 C
187 18-08-2020 15:30:00 23.4 C 62 % 15.71 C
188 18-08-2020 15:35:00 23.6 C 61 % 15.64 C
189 18-08-2020 15:40:00 23.7 C 60 % 15.48 C
190 18-08-2020 15:45:00 23.7 C 59 % 15.21 C
191 18-08-2020 15:50:00 23.6 C 56 % 14.31 C
192 18-08-2020 15:55:00 23.7 C 54 % 13.84 C
193 18-08-2020 16:00:00 23.8 C 53 % 13.65 C
194 18-08-2020 16:05:00 23.6 C 53 % 13.46 C
195 18-08-2020 16:10:00 23.4 C 54 % 13.57 C
196 18-08-2020 16:15:00 23.2 C 54 % 13.38 C
197 18-08-2020 16:20:00 22.9 C 55 % 13.38 C
198 18-08-2020 16:25:00 22.8 C 55 % 13.29 C
199 18-08-2020 16:30:00 22.7 C 56 % 13.47 C
200 18-08-2020 16:35:00 22.7 C 60 % 14.54 C
Sensor: Nr:Datum:Temp:Feuchte:Taupunkt:
Aussen-T/F 201 18-08-2020 16:40:00 22 C 68 % 15.82 C
202 18-08-2020 16:45:00 21.3 C 76 % 16.9 C
203 18-08-2020 16:50:00 20.4 C 79 % 16.64 C
204 18-08-2020 16:55:00 19.6 C 82 % 16.44 C
205 18-08-2020 17:00:00 18.9 C 83 % 15.95 C
206 18-08-2020 17:05:00 18.6 C 86 % 16.21 C
207 18-08-2020 17:10:00 18.4 C 88 % 16.38 C
208 18-08-2020 17:15:00 18.3 C 90 % 16.63 C
209 18-08-2020 17:20:00 18.4 C 91 % 16.9 C
210 18-08-2020 17:25:00 18.6 C 92 % 17.27 C
211 18-08-2020 17:30:00 18.7 C 92 % 17.37 C
212 18-08-2020 17:35:00 18.9 C 93 % 17.74 C
213 18-08-2020 17:40:00 19.1 C 93 % 17.94 C
214 18-08-2020 17:45:00 19.4 C 94 % 18.41 C
215 18-08-2020 17:50:00 19.7 C 94 % 18.71 C
216 18-08-2020 17:55:00 19.8 C 93 % 18.63 C
217 18-08-2020 18:00:00 19.8 C 93 % 18.63 C
218 18-08-2020 18:05:00 19.9 C 93 % 18.73 C
219 18-08-2020 18:10:00 19.7 C 91 % 18.19 C
220 18-08-2020 18:15:00 19.5 C 91 % 17.99 C
221 18-08-2020 18:20:00 19.4 C 91 % 17.89 C
222 18-08-2020 18:25:00 19.4 C 92 % 18.07 C
223 18-08-2020 18:30:00 19.4 C 92 % 18.07 C
224 18-08-2020 18:35:00 19.4 C 92 % 18.07 C
225 18-08-2020 18:40:00 19.4 C 92 % 18.07 C
Sensor: Nr:Datum:Temp:Feuchte:Taupunkt:
Aussen-T/F 226 18-08-2020 18:45:00 19.4 C 92 % 18.07 C
227 18-08-2020 18:50:00 19.3 C 92 % 17.97 C
228 18-08-2020 18:55:00 19.2 C 92 % 17.87 C
229 18-08-2020 19:00:00 19.1 C 92 % 17.77 C
230 18-08-2020 19:05:00 18.9 C 92 % 17.57 C
231 18-08-2020 19:10:00 18.7 C 92 % 17.37 C
232 18-08-2020 19:15:00 18.6 C 92 % 17.27 C
233 18-08-2020 19:20:00 18.4 C 92 % 17.08 C
234 18-08-2020 19:25:00 18.2 C 92 % 16.88 C
235 18-08-2020 19:30:00 18.1 C 93 % 16.95 C
236 18-08-2020 19:35:00 18 C 93 % 16.85 C
237 18-08-2020 19:40:00 18 C 93 % 16.85 C
238 18-08-2020 19:45:00 17.9 C 93 % 16.75 C
239 18-08-2020 19:50:00 17.9 C 94 % 16.92 C
240 18-08-2020 19:55:00 17.9 C 94 % 16.92 C
241 18-08-2020 20:00:00 18 C 94 % 17.02 C
242 18-08-2020 20:05:00 18 C 94 % 17.02 C
243 18-08-2020 20:10:00 17.9 C 94 % 16.92 C
244 18-08-2020 20:15:00 17.9 C 94 % 16.92 C
245 18-08-2020 20:20:00 17.9 C 94 % 16.92 C
246 18-08-2020 20:25:00 17.9 C 94 % 16.92 C
247 18-08-2020 20:30:00 17.9 C 94 % 16.92 C
248 18-08-2020 20:35:00 17.8 C 94 % 16.82 C
249 18-08-2020 20:40:00 17.7 C 94 % 16.72 C
250 18-08-2020 20:45:00 17.6 C 94 % 16.62 C
Sensor: Nr:Datum:Temp:Feuchte:Taupunkt:
Aussen-T/F 251 18-08-2020 20:50:00 17.4 C 94 % 16.42 C
252 18-08-2020 20:55:00 17.3 C 94 % 16.33 C
253 18-08-2020 21:00:00 17.1 C 94 % 16.13 C
254 18-08-2020 21:05:00 17 C 94 % 16.03 C
255 18-08-2020 21:10:00 16.9 C 94 % 15.93 C
256 18-08-2020 21:15:00 16.9 C 94 % 15.93 C
257 18-08-2020 21:20:00 16.8 C 94 % 15.83 C
258 18-08-2020 21:25:00 16.8 C 94 % 15.83 C
259 18-08-2020 21:30:00 16.7 C 94 % 15.73 C
260 18-08-2020 21:35:00 16.6 C 94 % 15.63 C
261 18-08-2020 21:40:00 16.6 C 95 % 15.8 C
262 18-08-2020 21:45:00 16.5 C 95 % 15.7 C
263 18-08-2020 21:50:00 16.4 C 95 % 15.6 C
264 18-08-2020 21:55:00 16.3 C 95 % 15.5 C
265 18-08-2020 22:00:00 16.2 C 94 % 15.23 C
266 18-08-2020 22:05:00 16.2 C 95 % 15.4 C
267 18-08-2020 22:10:00 16.1 C 95 % 15.3 C
268 18-08-2020 22:15:00 16.1 C 95 % 15.3 C
269 18-08-2020 22:20:00 16 C 95 % 15.2 C
270 18-08-2020 22:25:00 16 C 95 % 15.2 C
271 18-08-2020 22:30:00 16 C 95 % 15.2 C
272 18-08-2020 22:35:00 15.9 C 95 % 15.1 C
273 18-08-2020 22:40:00 15.9 C 95 % 15.1 C
274 18-08-2020 22:45:00 15.9 C 95 % 15.1 C
275 18-08-2020 22:50:00 15.8 C 95 % 15 C
Sensor: Nr:Datum:Temp:Feuchte:Taupunkt:
Aussen-T/F 276 18-08-2020 22:55:00 15.7 C 95 % 14.9 C
277 18-08-2020 23:00:00 15.6 C 95 % 14.8 C
278 18-08-2020 23:05:00 15.4 C 95 % 14.6 C
279 18-08-2020 23:10:00 15.3 C 95 % 14.5 C
280 18-08-2020 23:15:00 15.2 C 95 % 14.4 C
281 18-08-2020 23:20:00 15.1 C 95 % 14.31 C
282 18-08-2020 23:25:00 15.1 C 95 % 14.31 C
283 18-08-2020 23:30:00 15 C 95 % 14.21 C
284 18-08-2020 23:35:00 14.9 C 95 % 14.11 C
285 18-08-2020 23:40:00 14.9 C 95 % 14.11 C
286 18-08-2020 23:45:00 14.8 C 95 % 14.01 C
287 18-08-2020 23:50:00 14.8 C 95 % 14.01 C
288 18-08-2020 23:55:00 14.8 C 95 % 14.01 C

Legende:
   Min
   Max


Maximal/Minimal-Werte vom 23.02.2003 - 19.08.2019

Sensor Min Max Avg
Temp
(Aussen-T/F)
-16.4 °C
20-12-2009  01:30:01
40.4 °C
25-07-2019  16:20:00
11.22 °C
Feuchte
(Aussen-T/F)
18 %
17-07-2015  15:55:00
100 %
07-10-2012  03:05:00
76.99 %

Die Daten stammen von einer Davis Vantage Pro 2 Wetter-Station und werden unter Linux mit der Software wview2wettercgi und aufbereitet. Alle Angaben erfolgen ohne Gewähr für ihre Vollständigkeit oder Richtigkeit.
Kontakt: Rainer Krienke krienke@uni-koblenz.de . Meine Webseiten an der Uni Koblenz oder privat.
Version: $Revision: 0.78 $